sensor_id;sensor_type;location;lat;lon;timestamp;temperature;humidity
7077;DHT22;3579;48.956;9.154;2023-02-01T00:02:08;17.70;46.30
7077;DHT22;3579;48.956;9.154;2023-02-01T00:04:34;17.60;46.30
7077;DHT22;3579;48.956;9.154;2023-02-01T00:07:00;17.60;46.90
7077;DHT22;3579;48.956;9.154;2023-02-01T00:09:27;17.60;46.30
7077;DHT22;3579;48.956;9.154;2023-02-01T00:11:53;17.60;46.30
7077;DHT22;3579;48.956;9.154;2023-02-01T00:14:19;17.60;46.40
7077;DHT22;3579;48.956;9.154;2023-02-01T00:16:45;17.60;46.40
7077;DHT22;3579;48.956;9.154;2023-02-01T00:19:14;17.60;46.50
7077;DHT22;3579;48.956;9.154;2023-02-01T00:21:40;17.60;46.50
7077;DHT22;3579;48.956;9.154;2023-02-01T00:24:08;17.50;46.40
7077;DHT22;3579;48.956;9.154;2023-02-01T00:29:04;17.50;46.50
7077;DHT22;3579;48.956;9.154;2023-02-01T00:31:30;17.50;46.50
7077;DHT22;3579;48.956;9.154;2023-02-01T00:33:57;17.50;46.50
7077;DHT22;3579;48.956;9.154;2023-02-01T00:36:23;17.50;46.60
7077;DHT22;3579;48.956;9.154;2023-02-01T00:38:49;17.50;46.60
7077;DHT22;3579;48.956;9.154;2023-02-01T00:41:20;17.50;46.60
7077;DHT22;3579;48.956;9.154;2023-02-01T00:43:48;17.40;46.50
7077;DHT22;3579;48.956;9.154;2023-02-01T00:46:16;17.40;46.60
7077;DHT22;3579;48.956;9.154;2023-02-01T00:48:42;17.40;46.60
7077;DHT22;3579;48.956;9.154;2023-02-01T00:51:11;17.40;46.60
7077;DHT22;3579;48.956;9.154;2023-02-01T00:53:37;17.40;46.60
7077;DHT22;3579;48.956;9.154;2023-02-01T00:56:04;17.40;46.60
7077;DHT22;3579;48.956;9.154;2023-02-01T00:58:31;17.40;46.60
7077;DHT22;3579;48.956;9.154;2023-02-01T01:03:33;17.40;46.60
7077;DHT22;3579;48.956;9.154;2023-02-01T01:06:00;17.40;46.60
7077;DHT22;3579;48.956;9.154;2023-02-01T01:08:26;17.40;46.50
7077;DHT22;3579;48.956;9.154;2023-02-01T01:10:52;17.40;46.50
7077;DHT22;3579;48.956;9.154;2023-02-01T01:13:19;17.50;46.60
7077;DHT22;3579;48.956;9.154;2023-02-01T01:15:45;17.50;46.50
7077;DHT22;3579;48.956;9.154;2023-02-01T01:18:11;17.50;46.50
7077;DHT22;3579;48.956;9.154;2023-02-01T01:20:38;17.40;46.40
7077;DHT22;3579;48.956;9.154;2023-02-01T01:23:05;17.50;46.60
7077;DHT22;3579;48.956;9.154;2023-02-01T01:25:31;17.40;46.50
7077;DHT22;3579;48.956;9.154;2023-02-01T01:27:58;17.40;46.50
7077;DHT22;3579;48.956;9.154;2023-02-01T01:30:24;17.40;46.60
7077;DHT22;3579;48.956;9.154;2023-02-01T01:32:52;17.40;46.60
7077;DHT22;3579;48.956;9.154;2023-02-01T01:35:18;17.40;46.60
7077;DHT22;3579;48.956;9.154;2023-02-01T01:37:44;17.40;46.60
7077;DHT22;3579;48.956;9.154;2023-02-01T01:40:11;17.40;46.70
7077;DHT22;3579;48.956;9.154;2023-02-01T01:42:41;17.40;46.70
7077;DHT22;3579;48.956;9.154;2023-02-01T01:47:53;17.30;46.70
7077;DHT22;3579;48.956;9.154;2023-02-01T01:50:37;17.30;46.70
7077;DHT22;3579;48.956;9.154;2023-02-01T01:53:06;17.30;46.70
7077;DHT22;3579;48.956;9.154;2023-02-01T01:55:36;17.30;46.70
7077;DHT22;3579;48.956;9.154;2023-02-01T01:58:10;17.30;46.80
7077;DHT22;3579;48.956;9.154;2023-02-01T02:00:37;17.30;46.80
7077;DHT22;3579;48.956;9.154;2023-02-01T02:03:18;17.30;46.80
7077;DHT22;3579;48.956;9.154;2023-02-01T02:05:46;17.20;46.80
7077;DHT22;3579;48.956;9.154;2023-02-01T02:08:14;17.20;46.80
7077;DHT22;3579;48.956;9.154;2023-02-01T02:10:41;17.20;46.80
7077;DHT22;3579;48.956;9.154;2023-02-01T02:13:42;17.30;46.90
7077;DHT22;3579;48.956;9.154;2023-02-01T02:21:38;17.20;46.90
7077;DHT22;3579;48.956;9.154;2023-02-01T02:27:22;17.20;46.90
7077;DHT22;3579;48.956;9.154;2023-02-01T02:30:02;17.20;46.90
7077;DHT22;3579;48.956;9.154;2023-02-01T02:35:30;17.20;46.90
7077;DHT22;3579;48.956;9.154;2023-02-01T02:38:32;17.20;46.90
7077;DHT22;3579;48.956;9.154;2023-02-01T02:44:11;17.20;46.90
7077;DHT22;3579;48.956;9.154;2023-02-01T02:47:03;17.20;46.90
7077;DHT22;3579;48.956;9.154;2023-02-01T02:49:54;17.20;46.90
7077;DHT22;3579;48.956;9.154;2023-02-01T02:53:06;17.20;46.90
7077;DHT22;3579;48.956;9.154;2023-02-01T02:55:50;17.20;46.90
7077;DHT22;3579;48.956;9.154;2023-02-01T02:58:19;17.20;46.90
7077;DHT22;3579;48.956;9.154;2023-02-01T03:01:04;17.20;47.00
7077;DHT22;3579;48.956;9.154;2023-02-01T03:03:50;17.20;47.00
7077;DHT22;3579;48.956;9.154;2023-02-01T03:06:34;17.20;47.00
7077;DHT22;3579;48.956;9.154;2023-02-01T03:09:06;17.20;47.00
7077;DHT22;3579;48.956;9.154;2023-02-01T03:11:35;17.20;47.00
7077;DHT22;3579;48.956;9.154;2023-02-01T03:14:21;17.10;47.00
7077;DHT22;3579;48.956;9.154;2023-02-01T03:16:51;17.10;47.00
7077;DHT22;3579;48.956;9.154;2023-02-01T03:29:46;17.10;47.00
7077;DHT22;3579;48.956;9.154;2023-02-01T03:32:13;17.10;47.00
7077;DHT22;3579;48.956;9.154;2023-02-01T03:34:39;17.10;47.00
7077;DHT22;3579;48.956;9.154;2023-02-01T03:37:09;17.10;47.10
7077;DHT22;3579;48.956;9.154;2023-02-01T03:39:57;17.10;47.10
7077;DHT22;3579;48.956;9.154;2023-02-01T03:42:40;17.00;47.00
7077;DHT22;3579;48.956;9.154;2023-02-01T03:45:24;17.00;47.10
7077;DHT22;3579;48.956;9.154;2023-02-01T03:47:56;17.10;47.20
7077;DHT22;3579;48.956;9.154;2023-02-01T03:50:23;17.10;47.20
7077;DHT22;3579;48.956;9.154;2023-02-01T03:53:13;17.10;47.10
7077;DHT22;3579;48.956;9.154;2023-02-01T03:55:41;17.00;47.10
7077;DHT22;3579;48.956;9.154;2023-02-01T03:58:14;17.10;47.70
7077;DHT22;3579;48.956;9.154;2023-02-01T04:00:45;17.10;47.20
7077;DHT22;3579;48.956;9.154;2023-02-01T04:03:11;17.10;47.20
7077;DHT22;3579;48.956;9.154;2023-02-01T04:05:37;17.00;47.20
7077;DHT22;3579;48.956;9.154;2023-02-01T04:08:03;17.00;47.10
7077;DHT22;3579;48.956;9.154;2023-02-01T04:10:30;17.00;47.20
7077;DHT22;3579;48.956;9.154;2023-02-01T04:12:56;17.00;47.10
7077;DHT22;3579;48.956;9.154;2023-02-01T04:15:23;17.00;47.10
7077;DHT22;3579;48.956;9.154;2023-02-01T04:17:49;17.00;47.10
7077;DHT22;3579;48.956;9.154;2023-02-01T04:20:15;17.00;47.10
7077;DHT22;3579;48.956;9.154;2023-02-01T04:22:41;17.00;47.20
7077;DHT22;3579;48.956;9.154;2023-02-01T04:25:07;17.00;47.20
7077;DHT22;3579;48.956;9.154;2023-02-01T04:27:34;17.00;47.20
7077;DHT22;3579;48.956;9.154;2023-02-01T04:30:00;17.00;47.20
7077;DHT22;3579;48.956;9.154;2023-02-01T04:32:26;17.00;47.20
7077;DHT22;3579;48.956;9.154;2023-02-01T04:34:52;17.00;47.20
7077;DHT22;3579;48.956;9.154;2023-02-01T04:37:18;17.00;47.10
7077;DHT22;3579;48.956;9.154;2023-02-01T04:39:44;17.00;47.10
7077;DHT22;3579;48.956;9.154;2023-02-01T04:42:10;17.00;47.20
7077;DHT22;3579;48.956;9.154;2023-02-01T04:44:36;17.00;47.20
7077;DHT22;3579;48.956;9.154;2023-02-01T04:47:05;16.90;47.20
7077;DHT22;3579;48.956;9.154;2023-02-01T04:49:31;16.90;47.20
7077;DHT22;3579;48.956;9.154;2023-02-01T04:51:57;16.90;47.30
7077;DHT22;3579;48.956;9.154;2023-02-01T04:54:23;16.90;47.30
7077;DHT22;3579;48.956;9.154;2023-02-01T04:56:49;16.90;47.30
7077;DHT22;3579;48.956;9.154;2023-02-01T04:59:15;16.90;47.40
7077;DHT22;3579;48.956;9.154;2023-02-01T05:01:41;16.90;47.40
7077;DHT22;3579;48.956;9.154;2023-02-01T05:04:07;16.90;47.40
7077;DHT22;3579;48.956;9.154;2023-02-01T05:06:33;16.90;47.40
7077;DHT22;3579;48.956;9.154;2023-02-01T05:08:59;16.90;47.40
7077;DHT22;3579;48.956;9.154;2023-02-01T05:11:25;16.90;47.40
7077;DHT22;3579;48.956;9.154;2023-02-01T05:14:09;16.90;47.40
7077;DHT22;3579;48.956;9.154;2023-02-01T05:16:35;16.90;47.40
7077;DHT22;3579;48.956;9.154;2023-02-01T05:19:01;16.90;47.40
7077;DHT22;3579;48.956;9.154;2023-02-01T05:21:27;16.90;47.40
7077;DHT22;3579;48.956;9.154;2023-02-01T05:23:53;16.90;47.40
7077;DHT22;3579;48.956;9.154;2023-02-01T05:26:40;16.90;47.40
7077;DHT22;3579;48.956;9.154;2023-02-01T05:29:07;16.90;47.40
7077;DHT22;3579;48.956;9.154;2023-02-01T05:31:34;16.90;47.50
7077;DHT22;3579;48.956;9.154;2023-02-01T05:34:00;16.90;47.40
7077;DHT22;3579;48.956;9.154;2023-02-01T05:36:26;16.90;47.50
7077;DHT22;3579;48.956;9.154;2023-02-01T05:38:53;16.90;47.50
7077;DHT22;3579;48.956;9.154;2023-02-01T05:41:19;16.90;47.50
7077;DHT22;3579;48.956;9.154;2023-02-01T05:43:45;16.90;47.40
7077;DHT22;3579;48.956;9.154;2023-02-01T05:46:11;16.90;47.40
7077;DHT22;3579;48.956;9.154;2023-02-01T05:48:42;16.90;47.40
7077;DHT22;3579;48.956;9.154;2023-02-01T05:51:09;16.90;47.50
7077;DHT22;3579;48.956;9.154;2023-02-01T05:53:35;16.80;47.50
7077;DHT22;3579;48.956;9.154;2023-02-01T05:56:01;16.80;47.60
7077;DHT22;3579;48.956;9.154;2023-02-01T05:58:28;16.80;47.50
7077;DHT22;3579;48.956;9.154;2023-02-01T06:00:54;16.80;47.60
7077;DHT22;3579;48.956;9.154;2023-02-01T06:03:20;16.80;47.60
7077;DHT22;3579;48.956;9.154;2023-02-01T06:05:47;16.80;47.60
7077;DHT22;3579;48.956;9.154;2023-02-01T06:08:14;16.80;48.20
7077;DHT22;3579;48.956;9.154;2023-02-01T06:10:40;16.80;47.60
7077;DHT22;3579;48.956;9.154;2023-02-01T06:13:06;16.80;47.60
7077;DHT22;3579;48.956;9.154;2023-02-01T06:15:32;16.80;47.70
7077;DHT22;3579;48.956;9.154;2023-02-01T06:17:58;16.80;47.70
7077;DHT22;3579;48.956;9.154;2023-02-01T06:20:24;16.80;47.70
7077;DHT22;3579;48.956;9.154;2023-02-01T06:22:50;16.80;47.60
7077;DHT22;3579;48.956;9.154;2023-02-01T06:25:18;16.80;47.60
7077;DHT22;3579;48.956;9.154;2023-02-01T06:27:45;16.80;47.60
7077;DHT22;3579;48.956;9.154;2023-02-01T06:30:11;16.80;47.60
7077;DHT22;3579;48.956;9.154;2023-02-01T06:32:40;16.80;48.20
7077;DHT22;3579;48.956;9.154;2023-02-01T06:37:32;16.80;47.60
7077;DHT22;3579;48.956;9.154;2023-02-01T06:39:58;16.80;47.60
7077;DHT22;3579;48.956;9.154;2023-02-01T06:42:24;16.80;47.60
7077;DHT22;3579;48.956;9.154;2023-02-01T06:44:51;16.80;47.60
7077;DHT22;3579;48.956;9.154;2023-02-01T06:47:17;16.80;47.60
7077;DHT22;3579;48.956;9.154;2023-02-01T06:49:43;16.80;47.60
7077;DHT22;3579;48.956;9.154;2023-02-01T06:52:09;16.80;47.60
7077;DHT22;3579;48.956;9.154;2023-02-01T06:54:35;16.80;47.60
7077;DHT22;3579;48.956;9.154;2023-02-01T06:57:03;16.70;47.60
7077;DHT22;3579;48.956;9.154;2023-02-01T06:59:29;16.70;47.60
7077;DHT22;3579;48.956;9.154;2023-02-01T07:01:55;16.70;47.70
7077;DHT22;3579;48.956;9.154;2023-02-01T07:04:21;16.70;47.60
7077;DHT22;3579;48.956;9.154;2023-02-01T07:06:47;16.70;47.70
7077;DHT22;3579;48.956;9.154;2023-02-01T07:09:13;16.70;47.70
7077;DHT22;3579;48.956;9.154;2023-02-01T07:11:39;16.70;47.80
7077;DHT22;3579;48.956;9.154;2023-02-01T07:14:12;16.70;47.80
7077;DHT22;3579;48.956;9.154;2023-02-01T07:16:38;16.70;47.80
7077;DHT22;3579;48.956;9.154;2023-02-01T07:19:04;16.70;47.80
7077;DHT22;3579;48.956;9.154;2023-02-01T07:21:31;16.70;47.80
7077;DHT22;3579;48.956;9.154;2023-02-01T07:23:59;16.70;47.90
7077;DHT22;3579;48.956;9.154;2023-02-01T07:26:25;16.70;47.80
7077;DHT22;3579;48.956;9.154;2023-02-01T07:28:51;16.70;47.90
7077;DHT22;3579;48.956;9.154;2023-02-01T07:31:18;16.70;47.80
7077;DHT22;3579;48.956;9.154;2023-02-01T07:33:49;16.70;47.80
7077;DHT22;3579;48.956;9.154;2023-02-01T07:36:19;16.70;47.80
7077;DHT22;3579;48.956;9.154;2023-02-01T07:38:46;16.70;47.80
7077;DHT22;3579;48.956;9.154;2023-02-01T07:41:15;16.70;47.80
7077;DHT22;3579;48.956;9.154;2023-02-01T07:43:41;16.70;47.80
7077;DHT22;3579;48.956;9.154;2023-02-01T07:46:09;16.70;47.90
7077;DHT22;3579;48.956;9.154;2023-02-01T07:48:35;16.70;47.90
7077;DHT22;3579;48.956;9.154;2023-02-01T07:51:07;16.70;47.90
7077;DHT22;3579;48.956;9.154;2023-02-01T07:53:34;16.70;47.90
7077;DHT22;3579;48.956;9.154;2023-02-01T07:56:02;16.70;47.80
7077;DHT22;3579;48.956;9.154;2023-02-01T07:58:28;16.70;47.80
7077;DHT22;3579;48.956;9.154;2023-02-01T08:00:55;16.60;47.90
7077;DHT22;3579;48.956;9.154;2023-02-01T08:03:40;16.60;47.90
7077;DHT22;3579;48.956;9.154;2023-02-01T08:06:06;16.60;48.00
7077;DHT22;3579;48.956;9.154;2023-02-01T08:08:32;16.60;48.00
7077;DHT22;3579;48.956;9.154;2023-02-01T08:11:00;16.60;48.00
7077;DHT22;3579;48.956;9.154;2023-02-01T08:13:27;16.60;48.00
7077;DHT22;3579;48.956;9.154;2023-02-01T08:15:58;16.60;48.00
7077;DHT22;3579;48.956;9.154;2023-02-01T08:18:24;16.60;48.20
7077;DHT22;3579;48.956;9.154;2023-02-01T08:20:50;16.70;48.70
7077;DHT22;3579;48.956;9.154;2023-02-01T08:23:17;16.80;49.20
7077;DHT22;3579;48.956;9.154;2023-02-01T08:25:44;17.00;49.30
7077;DHT22;3579;48.956;9.154;2023-02-01T08:28:11;17.10;49.50
7077;DHT22;3579;48.956;9.154;2023-02-01T08:30:39;16.60;49.20
7077;DHT22;3579;48.956;9.154;2023-02-01T08:33:08;17.40;50.10
7077;DHT22;3579;48.956;9.154;2023-02-01T08:35:36;17.60;49.90
7077;DHT22;3579;48.956;9.154;2023-02-01T08:38:03;17.70;50.30
7077;DHT22;3579;48.956;9.154;2023-02-01T08:40:29;17.90;50.40
7077;DHT22;3579;48.956;9.154;2023-02-01T08:42:59;18.10;50.30
7077;DHT22;3579;48.956;9.154;2023-02-01T08:45:28;18.20;50.30
7077;DHT22;3579;48.956;9.154;2023-02-01T08:47:56;18.30;50.30
7077;DHT22;3579;48.956;9.154;2023-02-01T08:50:23;18.40;50.70
7077;DHT22;3579;48.956;9.154;2023-02-01T08:52:51;18.50;50.80
7077;DHT22;3579;48.956;9.154;2023-02-01T08:55:17;18.60;51.00
7077;DHT22;3579;48.956;9.154;2023-02-01T08:57:43;18.70;51.20
7077;DHT22;3579;48.956;9.154;2023-02-01T09:00:13;18.90;51.50
7077;DHT22;3579;48.956;9.154;2023-02-01T09:02:39;19.00;51.30
7077;DHT22;3579;48.956;9.154;2023-02-01T09:05:06;19.10;51.30
7077;DHT22;3579;48.956;9.154;2023-02-01T09:07:33;19.20;51.60
7077;DHT22;3579;48.956;9.154;2023-02-01T09:10:01;19.30;51.40
7077;DHT22;3579;48.956;9.154;2023-02-01T09:12:29;19.40;51.30
7077;DHT22;3579;48.956;9.154;2023-02-01T09:14:57;19.50;51.30
7077;DHT22;3579;48.956;9.154;2023-02-01T09:17:26;19.60;51.20
7077;DHT22;3579;48.956;9.154;2023-02-01T09:19:52;19.70;51.10
7077;DHT22;3579;48.956;9.154;2023-02-01T09:22:19;19.80;50.90
7077;DHT22;3579;48.956;9.154;2023-02-01T09:24:45;19.90;51.00
7077;DHT22;3579;48.956;9.154;2023-02-01T09:27:11;20.00;51.00
7077;DHT22;3579;48.956;9.154;2023-02-01T09:29:38;20.00;50.70
7077;DHT22;3579;48.956;9.154;2023-02-01T09:32:05;20.20;50.90
7077;DHT22;3579;48.956;9.154;2023-02-01T09:34:33;20.30;51.00
7077;DHT22;3579;48.956;9.154;2023-02-01T09:36:59;20.40;50.90
7077;DHT22;3579;48.956;9.154;2023-02-01T09:39:26;20.40;50.70
7077;DHT22;3579;48.956;9.154;2023-02-01T09:45:20;20.60;50.60
7077;DHT22;3579;48.956;9.154;2023-02-01T09:47:54;20.70;50.60
7077;DHT22;3579;48.956;9.154;2023-02-01T09:50:32;20.80;50.60
7077;DHT22;3579;48.956;9.154;2023-02-01T09:53:02;20.90;50.50
7077;DHT22;3579;48.956;9.154;2023-02-01T09:55:41;21.00;50.50
7077;DHT22;3579;48.956;9.154;2023-02-01T09:58:20;21.10;50.40
7077;DHT22;3579;48.956;9.154;2023-02-01T10:00:55;21.20;50.40
7077;DHT22;3579;48.956;9.154;2023-02-01T10:03:29;21.30;50.30
7077;DHT22;3579;48.956;9.154;2023-02-01T10:12:17;21.50;50.10
7077;DHT22;3579;48.956;9.154;2023-02-01T10:23:04;21.80;49.80
7077;DHT22;3579;48.956;9.154;2023-02-01T10:25:55;21.90;49.90
7077;DHT22;3579;48.956;9.154;2023-02-01T10:28:24;22.00;50.00
7077;DHT22;3579;48.956;9.154;2023-02-01T10:30:56;22.00;50.00
7077;DHT22;3579;48.956;9.154;2023-02-01T10:33:27;22.10;50.00
7077;DHT22;3579;48.956;9.154;2023-02-01T10:36:14;22.10;50.00
7077;DHT22;3579;48.956;9.154;2023-02-01T10:38:43;22.20;50.20
7077;DHT22;3579;48.956;9.154;2023-02-01T10:41:20;22.20;50.30
7077;DHT22;3579;48.956;9.154;2023-02-01T10:43:54;22.20;50.40
7077;DHT22;3579;48.956;9.154;2023-02-01T10:46:23;22.30;50.30
7077;DHT22;3579;48.956;9.154;2023-02-01T10:48:50;22.30;50.40
7077;DHT22;3579;48.956;9.154;2023-02-01T10:51:30;22.40;50.50
7077;DHT22;3579;48.956;9.154;2023-02-01T10:54:14;22.30;50.30
7077;DHT22;3579;48.956;9.154;2023-02-01T10:56:43;22.30;50.20
7077;DHT22;3579;48.956;9.154;2023-02-01T10:59:21;22.30;50.20
7077;DHT22;3579;48.956;9.154;2023-02-01T11:02:18;22.40;50.50
7077;DHT22;3579;48.956;9.154;2023-02-01T11:04:39;22.50;50.00
7077;DHT22;3579;48.956;9.154;2023-02-01T11:07:24;22.50;49.90
7077;DHT22;3579;48.956;9.154;2023-02-01T11:09:53;22.50;49.80
7077;DHT22;3579;48.956;9.154;2023-02-01T11:12:29;22.50;49.70
7077;DHT22;3579;48.956;9.154;2023-02-01T11:15:12;22.50;46.00
7077;DHT22;3579;48.956;9.154;2023-02-01T11:17:44;22.30;46.80
7077;DHT22;3579;48.956;9.154;2023-02-01T11:20:25;22.40;48.00
7077;DHT22;3579;48.956;9.154;2023-02-01T11:22:59;22.40;48.60
7077;DHT22;3579;48.956;9.154;2023-02-01T11:25:25;22.50;48.20
7077;DHT22;3579;48.956;9.154;2023-02-01T11:27:54;22.50;48.10
7077;DHT22;3579;48.956;9.154;2023-02-01T11:32:53;22.60;48.10
7077;DHT22;3579;48.956;9.154;2023-02-01T11:35:20;22.60;48.10
7077;DHT22;3579;48.956;9.154;2023-02-01T11:37:54;22.70;48.20
7077;DHT22;3579;48.956;9.154;2023-02-01T11:40:38;22.80;48.20
7077;DHT22;3579;48.956;9.154;2023-02-01T11:45:39;22.80;48.20
7077;DHT22;3579;48.956;9.154;2023-02-01T11:48:14;22.80;48.00
7077;DHT22;3579;48.956;9.154;2023-02-01T12:10:15;22.90;47.80
7077;DHT22;3579;48.956;9.154;2023-02-01T12:13:14;23.00;47.90
7077;DHT22;3579;48.956;9.154;2023-02-01T12:16:02;23.00;47.80
7077;DHT22;3579;48.956;9.154;2023-02-01T12:32:02;23.00;47.60
7077;DHT22;3579;48.956;9.154;2023-02-01T12:39:40;23.10;48.00
7077;DHT22;3579;48.956;9.154;2023-02-01T12:42:21;23.20;48.20
7077;DHT22;3579;48.956;9.154;2023-02-01T12:44:54;23.20;48.10
7077;DHT22;3579;48.956;9.154;2023-02-01T12:47:31;23.20;48.50
7077;DHT22;3579;48.956;9.154;2023-02-01T12:50:24;23.20;48.40
7077;DHT22;3579;48.956;9.154;2023-02-01T12:52:55;23.20;48.50
7077;DHT22;3579;48.956;9.154;2023-02-01T12:55:36;23.30;48.50
7077;DHT22;3579;48.956;9.154;2023-02-01T13:00:51;23.30;48.60
7077;DHT22;3579;48.956;9.154;2023-02-01T13:03:58;23.30;48.70
7077;DHT22;3579;48.956;9.154;2023-02-01T13:06:27;23.30;48.50
7077;DHT22;3579;48.956;9.154;2023-02-01T13:11:46;23.30;48.40
7077;DHT22;3579;48.956;9.154;2023-02-01T13:14:22;23.40;48.40
7077;DHT22;3579;48.956;9.154;2023-02-01T13:16:52;23.30;48.30
7077;DHT22;3579;48.956;9.154;2023-02-01T13:19:20;23.30;48.30
7077;DHT22;3579;48.956;9.154;2023-02-01T13:22:10;23.30;48.30
7077;DHT22;3579;48.956;9.154;2023-02-01T13:27:14;23.30;48.20
7077;DHT22;3579;48.956;9.154;2023-02-01T13:45:45;23.30;48.00
7077;DHT22;3579;48.956;9.154;2023-02-01T13:48:38;23.30;47.90
7077;DHT22;3579;48.956;9.154;2023-02-01T13:51:05;23.40;48.00
7077;DHT22;3579;48.956;9.154;2023-02-01T13:53:36;23.40;48.00
7077;DHT22;3579;48.956;9.154;2023-02-01T13:56:11;23.40;47.80
7077;DHT22;3579;48.956;9.154;2023-02-01T13:58:41;23.40;47.80
7077;DHT22;3579;48.956;9.154;2023-02-01T14:03:55;23.40;48.00
7077;DHT22;3579;48.956;9.154;2023-02-01T14:11:56;23.50;47.70
7077;DHT22;3579;48.956;9.154;2023-02-01T14:19:24;23.50;47.60
7077;DHT22;3579;48.956;9.154;2023-02-01T14:21:52;23.50;47.60
7077;DHT22;3579;48.956;9.154;2023-02-01T14:24:25;23.50;47.50
7077;DHT22;3579;48.956;9.154;2023-02-01T14:27:18;23.40;47.40
7077;DHT22;3579;48.956;9.154;2023-02-01T14:30:00;23.40;45.10
7077;DHT22;3579;48.956;9.154;2023-02-01T14:32:40;23.30;45.20
7077;DHT22;3579;48.956;9.154;2023-02-01T14:35:20;23.40;45.70
7077;DHT22;3579;48.956;9.154;2023-02-01T14:37:51;23.40;46.10
7077;DHT22;3579;48.956;9.154;2023-02-01T14:40:24;23.60;46.00
7077;DHT22;3579;48.956;9.154;2023-02-01T14:42:51;23.60;46.10
7077;DHT22;3579;48.956;9.154;2023-02-01T14:47:45;23.60;46.20
7077;DHT22;3579;48.956;9.154;2023-02-01T15:01:15;23.60;46.60
7077;DHT22;3579;48.956;9.154;2023-02-01T15:04:05;23.50;46.50
7077;DHT22;3579;48.956;9.154;2023-02-01T15:06:38;23.50;46.60
7077;DHT22;3579;48.956;9.154;2023-02-01T15:09:27;23.50;46.60
7077;DHT22;3579;48.956;9.154;2023-02-01T15:14:24;23.50;46.60
7077;DHT22;3579;48.956;9.154;2023-02-01T15:16:50;23.40;46.50
7077;DHT22;3579;48.956;9.154;2023-02-01T15:19:25;23.40;46.70
7077;DHT22;3579;48.956;9.154;2023-02-01T15:21:56;23.40;46.80
7077;DHT22;3579;48.956;9.154;2023-02-01T15:24:30;23.40;46.80
7077;DHT22;3579;48.956;9.154;2023-02-01T15:27:03;23.40;46.80
7077;DHT22;3579;48.956;9.154;2023-02-01T15:29:29;23.30;46.70
7077;DHT22;3579;48.956;9.154;2023-02-01T15:31:58;23.30;46.90
7077;DHT22;3579;48.956;9.154;2023-02-01T15:34:47;23.30;46.80
7077;DHT22;3579;48.956;9.154;2023-02-01T15:37:16;23.30;46.80
7077;DHT22;3579;48.956;9.154;2023-02-01T15:42:29;23.30;47.00
7077;DHT22;3579;48.956;9.154;2023-02-01T15:44:55;23.30;46.50
7077;DHT22;3579;48.956;9.154;2023-02-01T15:47:27;23.30;46.90
7077;DHT22;3579;48.956;9.154;2023-02-01T15:49:56;23.30;47.30
7077;DHT22;3579;48.956;9.154;2023-02-01T15:52:39;23.30;47.50
7077;DHT22;3579;48.956;9.154;2023-02-01T15:57:52;23.30;48.20
7077;DHT22;3579;48.956;9.154;2023-02-01T16:00:28;23.30;48.50
7077;DHT22;3579;48.956;9.154;2023-02-01T16:03:01;23.30;48.70
7077;DHT22;3579;48.956;9.154;2023-02-01T16:08:16;23.40;48.90
7077;DHT22;3579;48.956;9.154;2023-02-01T16:10:47;23.40;48.70
7077;DHT22;3579;48.956;9.154;2023-02-01T16:13:15;23.40;48.90
7077;DHT22;3579;48.956;9.154;2023-02-01T16:15:41;23.40;48.60
7077;DHT22;3579;48.956;9.154;2023-02-01T16:18:08;23.40;48.70
7077;DHT22;3579;48.956;9.154;2023-02-01T16:20:36;23.40;48.50
7077;DHT22;3579;48.956;9.154;2023-02-01T16:23:03;23.40;48.50
7077;DHT22;3579;48.956;9.154;2023-02-01T16:25:29;23.40;48.40
7077;DHT22;3579;48.956;9.154;2023-02-01T16:27:56;23.40;48.40
7077;DHT22;3579;48.956;9.154;2023-02-01T16:30:22;23.40;48.40
7077;DHT22;3579;48.956;9.154;2023-02-01T16:32:55;23.30;48.30
7077;DHT22;3579;48.956;9.154;2023-02-01T16:35:27;23.30;48.30
7077;DHT22;3579;48.956;9.154;2023-02-01T16:37:54;23.30;48.20
7077;DHT22;3579;48.956;9.154;2023-02-01T16:40:21;23.30;48.20
7077;DHT22;3579;48.956;9.154;2023-02-01T16:42:51;23.30;48.20
7077;DHT22;3579;48.956;9.154;2023-02-01T16:45:18;23.20;48.10
7077;DHT22;3579;48.956;9.154;2023-02-01T16:47:50;23.20;48.20
7077;DHT22;3579;48.956;9.154;2023-02-01T16:50:20;23.20;48.10
7077;DHT22;3579;48.956;9.154;2023-02-01T16:52:47;23.20;48.10
7077;DHT22;3579;48.956;9.154;2023-02-01T16:55:15;23.10;48.00
7077;DHT22;3579;48.956;9.154;2023-02-01T16:57:42;23.10;48.00
7077;DHT22;3579;48.956;9.154;2023-02-01T17:00:12;23.10;48.00
7077;DHT22;3579;48.956;9.154;2023-02-01T17:02:39;23.00;47.90
7077;DHT22;3579;48.956;9.154;2023-02-01T17:05:06;23.00;47.90
7077;DHT22;3579;48.956;9.154;2023-02-01T17:07:32;23.10;48.10
7077;DHT22;3579;48.956;9.154;2023-02-01T17:09:59;23.10;48.00
7077;DHT22;3579;48.956;9.154;2023-02-01T17:12:27;23.00;47.90
7077;DHT22;3579;48.956;9.154;2023-02-01T17:14:54;23.00;47.90
7077;DHT22;3579;48.956;9.154;2023-02-01T17:17:21;23.00;47.90
7077;DHT22;3579;48.956;9.154;2023-02-01T17:19:50;23.10;48.00
7077;DHT22;3579;48.956;9.154;2023-02-01T17:22:23;23.00;45.90
7077;DHT22;3579;48.956;9.154;2023-02-01T17:24:49;22.90;46.50
7077;DHT22;3579;48.956;9.154;2023-02-01T17:27:17;22.90;46.30
7077;DHT22;3579;48.956;9.154;2023-02-01T17:29:44;22.90;46.30
7077;DHT22;3579;48.956;9.154;2023-02-01T17:32:20;22.90;46.30
7077;DHT22;3579;48.956;9.154;2023-02-01T17:34:46;22.90;46.40
7077;DHT22;3579;48.956;9.154;2023-02-01T17:37:25;22.70;46.20
7077;DHT22;3579;48.956;9.154;2023-02-01T17:39:52;22.90;46.40
7077;DHT22;3579;48.956;9.154;2023-02-01T17:42:21;22.80;46.30
7077;DHT22;3579;48.956;9.154;2023-02-01T17:44:48;22.80;46.40
7077;DHT22;3579;48.956;9.154;2023-02-01T17:47:15;22.80;46.40
7077;DHT22;3579;48.956;9.154;2023-02-01T17:49:41;22.80;46.40
7077;DHT22;3579;48.956;9.154;2023-02-01T17:52:14;22.70;46.40
7077;DHT22;3579;48.956;9.154;2023-02-01T17:54:41;22.70;46.40
7077;DHT22;3579;48.956;9.154;2023-02-01T17:57:13;22.70;46.40
7077;DHT22;3579;48.956;9.154;2023-02-01T17:59:39;22.60;46.40
7077;DHT22;3579;48.956;9.154;2023-02-01T18:02:19;22.60;46.40
7077;DHT22;3579;48.956;9.154;2023-02-01T18:04:45;22.60;46.50
7077;DHT22;3579;48.956;9.154;2023-02-01T18:07:11;22.50;46.40
7077;DHT22;3579;48.956;9.154;2023-02-01T18:09:37;22.50;46.40
7077;DHT22;3579;48.956;9.154;2023-02-01T18:12:04;22.50;46.50
7077;DHT22;3579;48.956;9.154;2023-02-01T18:14:30;22.50;46.50
7077;DHT22;3579;48.956;9.154;2023-02-01T18:16:57;22.40;46.50
7077;DHT22;3579;48.956;9.154;2023-02-01T18:19:23;22.40;46.50
7077;DHT22;3579;48.956;9.154;2023-02-01T18:21:49;22.30;46.40
7077;DHT22;3579;48.956;9.154;2023-02-01T18:24:17;22.30;46.50
7077;DHT22;3579;48.956;9.154;2023-02-01T18:26:44;22.30;46.50
7077;DHT22;3579;48.956;9.154;2023-02-01T18:29:10;22.30;46.60
7077;DHT22;3579;48.956;9.154;2023-02-01T18:31:40;22.20;46.60
7077;DHT22;3579;48.956;9.154;2023-02-01T18:34:09;22.20;46.60
7077;DHT22;3579;48.956;9.154;2023-02-01T18:36:39;22.20;46.60
7077;DHT22;3579;48.956;9.154;2023-02-01T18:39:05;22.20;46.70
7077;DHT22;3579;48.956;9.154;2023-02-01T18:41:31;22.20;46.70
7077;DHT22;3579;48.956;9.154;2023-02-01T18:43:58;22.10;46.60
7077;DHT22;3579;48.956;9.154;2023-02-01T18:46:24;22.10;46.60
7077;DHT22;3579;48.956;9.154;2023-02-01T18:48:51;22.10;46.70
7077;DHT22;3579;48.956;9.154;2023-02-01T18:51:18;22.10;46.70
7077;DHT22;3579;48.956;9.154;2023-02-01T18:53:46;22.10;46.70
7077;DHT22;3579;48.956;9.154;2023-02-01T18:56:13;22.10;46.70
7077;DHT22;3579;48.956;9.154;2023-02-01T18:58:39;22.00;46.70
7077;DHT22;3579;48.956;9.154;2023-02-01T19:01:10;22.00;46.70